This is the latest recevied weather packets stored in our database for station/object IT9DBI-3. If no packets are shown the sender has not sent any weather packets the latest 10 day(s).
| Time | Temp. | Humidity | Pressure | Rain* | Wind** | Luminosity | Snow |
|---|---|---|---|---|---|---|---|
| 1788081628 | 41.11° C | 16% | 1012.5 hPa | - | - | - | - |
| 1788080427 | 41.11° C | 22% | 1012.6 hPa | - | - | - | - |
| 1788079226 | 40.56° C | 23% | 1012.6 hPa | - | - | - | - |
| 1788078022 | 40.56° C | 17% | 1012.3 hPa | - | - | - | - |
| 1788076820 | 40° C | 18% | 1012.1 hPa | - | - | - | - |
| 1788075619 | 39.44° C | 18% | 1012.2 hPa | - | - | - | - |
| 1788074418 | 38.89° C | 20% | 1012.1 hPa | - | - | - | - |
| 1788073216 | 36.67° C | 21% | 1012.2 hPa | - | - | - | - |
| 1788072015 | 33.89° C | 28% | 1012.4 hPa | - | - | - | - |
| 1788070814 | 33.33° C | 29% | 1012.9 hPa | - | - | - | - |
| 1788069613 | 31.11° C | 31% | 1013 hPa | - | - | - | - |
| 1788068411 | 31.11° C | 30% | 1012.9 hPa | - | - | - | - |
| 1788067210 | 30.56° C | 29% | 1013 hPa | - | - | - | - |
| 1788066009 | 30.56° C | 28% | 1013 hPa | - | - | - | - |
| 1788064807 | 30° C | 28% | 1013.1 hPa | - | - | - | - |
| 1788063606 | 30.56° C | 27% | 1013.1 hPa | - | - | - | - |
| 1788062405 | 30° C | 28% | 1013.2 hPa | - | - | - | - |
| 1788061203 | 31.67° C | 26% | 1013.3 hPa | - | - | - | - |
| 1788060002 | 30.56° C | 27% | 1013.3 hPa | - | - | - | - |
| 1788058801 | 30.56° C | 27% | 1013.4 hPa | - | - | - | - |
| 1788057600 | 31.11° C | 26% | 1013.6 hPa | - | - | - | - |
| 1788056398 | 31.11° C | 26% | 1013.9 hPa | - | - | - | - |
| 1788055197 | 32.22° C | 23% | 1014 hPa | - | - | - | - |
| 1788053996 | 33.33° C | 20% | 1013.9 hPa | - | - | - | - |
| 1788052794 | 32.22° C | 22% | 1014.1 hPa | - | - | - | - |
* Rain since midnight (hover to see other rain measurements)
** Current wind speed in m/s (hover to see current wind gust speed)